KGPI

Glacier Park International Airport

Kalispell, Montana, USA
KGPI 221120Z 2212/2312 14004KT P6SM OVC040 FM221600 19007KT P6SM OVC050 FM230800 17007KT 2SM -SN FEW005 BKN025 OVC030
Issued Valid From Valid To
Jan-22 @ 11:20 UTC
(6 hours ago)
Jan-22 @ 12:00 UTC
(5 hours ago)
Jan-23 @ 12:00 UTC
(in 19 hours)
Expired Click to View Jan-22 @ 12:00 to Jan-22 @ 16:00
KGPI 221120Z 2212/2312 14004KT P6SM OVC040
Wind Visibility Clouds
140° at 4 knots Greater than 6 miles
  • Overcast at 4,000' AGL
From Jan-22 @ 16:00 to Jan-23 @ 08:00
FM221600 19007KT P6SM OVC050
Wind Visibility Clouds
190° at 7 knots Greater than 6 miles
  • Overcast at 5,000' AGL
From Jan-23 @ 08:00 to Jan-23 @ 12:00
FM230800 17007KT 2SM -SN FEW005 BKN025 OVC030
Wind Visibility Clouds Conditions
170° at 7 knots 2 miles
  • Few at 500' AGL
  • Broken at 2,500' AGL
  • Overcast at 3,000' AGL
  • Light Snow
KGPI 221120Z 2212/2312 14004KT P6SM OVC040 FM221600 19007KT P6SM OVC050 FM230800 17007KT 2SM -SN FEW005 BKN025 OVC030
Issued Jan-22 @ 11:20 UTC
(6 hours ago)
Valid From Jan-22 @ 12:00 UTC
(5 hours ago)
Valid To Jan-23 @ 12:00 UTC
(in 19 hours)
Jan-22 @ 12:00 - Jan-22 @ 16:00
Wind Visibility
140° at 4 knots Greater than 6 miles
Clouds
  • Overcast at 4,000' AGL
From Jan-22 @ 16:00 - Jan-23 @ 08:00
Wind Visibility
190° at 7 knots Greater than 6 miles
Clouds
  • Overcast at 5,000' AGL
From Jan-23 @ 08:00 - Jan-23 @ 12:00
Wind Visibility
170° at 7 knots 2 miles
Clouds
  • Few at 500' AGL
  • Broken at 2,500' AGL
  • Overcast at 3,000' AGL
Conditions
  • Light Snow